sensor_id;sensor_type;location;lat;lon;timestamp;pressure;altitude;pressure_sealevel;temperature;humidity
6343;BME280;3204;42.698;23.298;2023-03-22T00:00:52;94574.25;;;10.87;94.89
6343;BME280;3204;42.698;23.298;2023-03-22T00:03:18;94572.50;;;10.91;94.92
6343;BME280;3204;42.698;23.298;2023-03-22T00:05:44;94569.31;;;10.98;95.05
6343;BME280;3204;42.698;23.298;2023-03-22T00:08:09;94567.88;;;11.00;95.00
6343;BME280;3204;42.698;23.298;2023-03-22T00:10:38;94571.88;;;11.03;95.56
6343;BME280;3204;42.698;23.298;2023-03-22T00:13:05;94570.91;;;10.99;95.35
6343;BME280;3204;42.698;23.298;2023-03-22T00:15:31;94569.16;;;11.03;95.00
6343;BME280;3204;42.698;23.298;2023-03-22T00:17:56;94573.28;;;11.09;95.27
6343;BME280;3204;42.698;23.298;2023-03-22T00:20:25;94570.91;;;11.07;95.88
6343;BME280;3204;42.698;23.298;2023-03-22T00:22:55;94573.78;;;11.02;96.70
6343;BME280;3204;42.698;23.298;2023-03-22T00:25:21;94560.22;;;10.94;96.84
6343;BME280;3204;42.698;23.298;2023-03-22T00:27:46;94573.28;;;11.09;97.00
6343;BME280;3204;42.698;23.298;2023-03-22T00:30:12;94566.41;;;11.20;95.63
6343;BME280;3204;42.698;23.298;2023-03-22T00:32:38;94565.66;;;10.94;95.92
6343;BME280;3204;42.698;23.298;2023-03-22T00:35:04;94554.78;;;10.85;96.68
6343;BME280;3204;42.698;23.298;2023-03-22T00:37:30;94561.97;;;10.81;96.95
6343;BME280;3204;42.698;23.298;2023-03-22T00:40:08;94560.22;;;10.77;97.02
6343;BME280;3204;42.698;23.298;2023-03-22T00:42:38;94556.88;;;10.80;97.51
6343;BME280;3204;42.698;23.298;2023-03-22T00:45:05;94556.88;;;10.80;97.60
6343;BME280;3204;42.698;23.298;2023-03-22T00:47:31;94547.47;;;10.77;97.96
6343;BME280;3204;42.698;23.298;2023-03-22T00:49:57;94556.22;;;10.74;97.41
6343;BME280;3204;42.698;23.298;2023-03-22T00:52:22;94554.31;;;10.83;96.84
6343;BME280;3204;42.698;23.298;2023-03-22T00:54:48;94550.78;;;10.83;96.84
6343;BME280;3204;42.698;23.298;2023-03-22T00:57:13;94547.47;;;10.77;97.65
6343;BME280;3204;42.698;23.298;2023-03-22T00:59:39;94549.81;;;10.79;97.40
6343;BME280;3204;42.698;23.298;2023-03-22T01:02:07;94545.72;;;10.81;97.34
6343;BME280;3204;42.698;23.298;2023-03-22T01:04:34;94551.44;;;10.88;97.01
6343;BME280;3204;42.698;23.298;2023-03-22T01:07:00;94543.31;;;10.80;96.62
6343;BME280;3204;42.698;23.298;2023-03-22T01:09:28;94545.38;;;10.74;96.80
6343;BME280;3204;42.698;23.298;2023-03-22T01:11:56;94542.97;;;10.73;96.79
6343;BME280;3204;42.698;23.298;2023-03-22T01:14:23;94543.47;;;10.75;96.88
6343;BME280;3204;42.698;23.298;2023-03-22T01:16:49;94534.69;;;10.78;96.81
6343;BME280;3204;42.698;23.298;2023-03-22T01:19:15;94535.00;;;10.76;96.64
6343;BME280;3204;42.698;23.298;2023-03-22T01:21:40;94526.06;;;10.59;96.98
6343;BME280;3204;42.698;23.298;2023-03-22T01:24:06;94538.50;;;10.77;96.31
6343;BME280;3204;42.698;23.298;2023-03-22T01:26:32;94534.38;;;10.71;96.11
6343;BME280;3204;42.698;23.298;2023-03-22T01:28:58;94536.25;;;10.79;96.26
6343;BME280;3204;42.698;23.298;2023-03-22T01:31:23;94519.69;;;10.72;96.16
6343;BME280;3204;42.698;23.298;2023-03-22T01:33:48;94526.84;;;10.76;96.42
6343;BME280;3204;42.698;23.298;2023-03-22T01:36:14;94526.38;;;10.74;96.96
6343;BME280;3204;42.698;23.298;2023-03-22T01:38:39;94524.63;;;10.78;96.15
6343;BME280;3204;42.698;23.298;2023-03-22T01:41:05;94532.16;;;10.81;96.19
6343;BME280;3204;42.698;23.298;2023-03-22T01:43:31;94518.25;;;10.74;95.91
6343;BME280;3204;42.698;23.298;2023-03-22T01:45:56;94521.28;;;10.73;96.02
6343;BME280;3204;42.698;23.298;2023-03-22T01:48:27;94522.25;;;10.68;96.01
6343;BME280;3204;42.698;23.298;2023-03-22T01:51:15;94524.97;;;10.68;96.45
6343;BME280;3204;42.698;23.298;2023-03-22T01:53:51;94513.78;;;10.53;96.32
6343;BME280;3204;42.698;23.298;2023-03-22T01:56:20;94516.19;;;10.46;97.00
6343;BME280;3204;42.698;23.298;2023-03-22T01:58:47;94518.75;;;10.51;96.93
6343;BME280;3204;42.698;23.298;2023-03-22T02:01:13;94521.78;;;10.49;97.30
6343;BME280;3204;42.698;23.298;2023-03-22T02:03:52;94522.88;;;10.57;97.33
6343;BME280;3204;42.698;23.298;2023-03-22T02:06:20;94519.69;;;10.55;97.35
6343;BME280;3204;42.698;23.298;2023-03-22T02:08:46;94521.13;;;10.61;97.49
6343;BME280;3204;42.698;23.298;2023-03-22T02:11:16;94520.50;;;10.55;97.36
6343;BME280;3204;42.698;23.298;2023-03-22T02:16:35;94517.47;;;10.57;97.34
6343;BME280;3204;42.698;23.298;2023-03-22T02:21:59;94525.59;;;10.65;97.35
6343;BME280;3204;42.698;23.298;2023-03-22T02:35:48;94534.03;;;10.64;96.63
6343;BME280;3204;42.698;23.298;2023-03-22T02:38:23;94533.72;;;10.57;96.71
6343;BME280;3204;42.698;23.298;2023-03-22T02:41:08;94530.38;;;10.60;96.89
6343;BME280;3204;42.698;23.298;2023-03-22T02:44:06;94533.41;;;10.50;96.35
6343;BME280;3204;42.698;23.298;2023-03-22T02:46:47;94531.19;;;10.52;96.09
6343;BME280;3204;42.698;23.298;2023-03-22T02:54:37;94537.69;;;10.42;96.13
6343;BME280;3204;42.698;23.298;2023-03-22T02:57:09;94538.97;;;10.36;96.44
6343;BME280;3204;42.698;23.298;2023-03-22T02:59:37;94544.41;;;10.36;96.66
6343;BME280;3204;42.698;23.298;2023-03-22T03:02:04;94543.63;;;10.53;96.03
6343;BME280;3204;42.698;23.298;2023-03-22T03:04:36;94538.81;;;10.50;96.24
6343;BME280;3204;42.698;23.298;2023-03-22T03:07:07;94544.91;;;10.47;96.50
6343;BME280;3204;42.698;23.298;2023-03-22T03:09:34;94541.38;;;10.38;97.21
6343;BME280;3204;42.698;23.298;2023-03-22T03:12:00;94540.09;;;10.35;97.51
6343;BME280;3204;42.698;23.298;2023-03-22T03:14:27;94539.13;;;10.40;97.42
6343;BME280;3204;42.698;23.298;2023-03-22T03:25:20;94541.69;;;10.45;97.27
6343;BME280;3204;42.698;23.298;2023-03-22T03:27:57;94551.56;;;10.41;96.99
6343;BME280;3204;42.698;23.298;2023-03-22T03:30:39;94553.97;;;10.42;97.13
6343;BME280;3204;42.698;23.298;2023-03-22T03:33:14;94546.63;;;10.34;97.69
6343;BME280;3204;42.698;23.298;2023-03-22T03:35:55;94547.56;;;10.38;97.18
6343;BME280;3204;42.698;23.298;2023-03-22T03:38:25;94554.44;;;10.36;96.93
6343;BME280;3204;42.698;23.298;2023-03-22T03:40:56;94550.94;;;10.35;97.07
6343;BME280;3204;42.698;23.298;2023-03-22T03:43:24;94553.50;;;10.40;96.60
6343;BME280;3204;42.698;23.298;2023-03-22T03:45:51;94557.78;;;10.41;96.06
6343;BME280;3204;42.698;23.298;2023-03-22T03:48:28;94560.50;;;10.41;95.44
6343;BME280;3204;42.698;23.298;2023-03-22T03:50:55;94556.03;;;10.37;96.10
6343;BME280;3204;42.698;23.298;2023-03-22T03:53:21;94558.41;;;10.38;96.08
6343;BME280;3204;42.698;23.298;2023-03-22T03:55:47;94564.34;;;10.40;96.33
6343;BME280;3204;42.698;23.298;2023-03-22T03:58:13;94563.38;;;10.36;96.39
6343;BME280;3204;42.698;23.298;2023-03-22T04:00:40;94567.66;;;10.37;97.10
6343;BME280;3204;42.698;23.298;2023-03-22T04:03:06;94567.22;;;10.44;96.20
6343;BME280;3204;42.698;23.298;2023-03-22T04:05:31;94561.63;;;10.40;95.37
6343;BME280;3204;42.698;23.298;2023-03-22T04:07:57;94569.44;;;10.42;95.22
6343;BME280;3204;42.698;23.298;2023-03-22T04:10:22;94575.03;;;10.45;95.57
6343;BME280;3204;42.698;23.298;2023-03-22T04:12:48;94578.06;;;10.44;96.00
6343;BME280;3204;42.698;23.298;2023-03-22T04:15:13;94575.84;;;10.46;95.12
6343;BME280;3204;42.698;23.298;2023-03-22T04:17:39;94577.75;;;10.45;95.40
6343;BME280;3204;42.698;23.298;2023-03-22T04:20:06;94581.25;;;10.46;94.60
6343;BME280;3204;42.698;23.298;2023-03-22T04:22:33;94573.59;;;10.48;94.86
6343;BME280;3204;42.698;23.298;2023-03-22T04:25:02;94571.34;;;10.50;95.01
6343;BME280;3204;42.698;23.298;2023-03-22T04:27:27;94576.16;;;10.53;94.93
6343;BME280;3204;42.698;23.298;2023-03-22T04:29:53;94579.69;;;10.53;95.47
6343;BME280;3204;42.698;23.298;2023-03-22T04:32:20;94573.91;;;10.46;95.28
6343;BME280;3204;42.698;23.298;2023-03-22T04:34:49;94580.16;;;10.55;95.24
6343;BME280;3204;42.698;23.298;2023-03-22T04:37:15;94573.28;;;10.49;95.46
6343;BME280;3204;42.698;23.298;2023-03-22T04:39:41;94581.25;;;10.46;95.50
6343;BME280;3204;42.698;23.298;2023-03-22T04:42:07;94585.88;;;10.45;95.56
6343;BME280;3204;42.698;23.298;2023-03-22T04:44:33;94583.31;;;10.49;95.58
6343;BME280;3204;42.698;23.298;2023-03-22T04:46:58;94578.06;;;10.44;95.54
6343;BME280;3204;42.698;23.298;2023-03-22T04:49:23;94580.59;;;10.49;95.36
6343;BME280;3204;42.698;23.298;2023-03-22T04:51:52;94587.31;;;10.43;95.55
6343;BME280;3204;42.698;23.298;2023-03-22T04:54:17;94592.56;;;10.48;96.01
6343;BME280;3204;42.698;23.298;2023-03-22T04:56:42;94598.31;;;10.46;95.66
6343;BME280;3204;42.698;23.298;2023-03-22T04:59:08;94595.59;;;10.46;95.89
6343;BME280;3204;42.698;23.298;2023-03-22T05:01:35;94596.56;;;10.42;95.52
6343;BME280;3204;42.698;23.298;2023-03-22T05:04:02;94596.41;;;10.47;95.25
6343;BME280;3204;42.698;23.298;2023-03-22T05:06:28;94595.59;;;10.46;95.23
6343;BME280;3204;42.698;23.298;2023-03-22T05:08:57;94598.63;;;10.45;95.45
6343;BME280;3204;42.698;23.298;2023-03-22T05:11:22;94597.66;;;10.41;96.01
6343;BME280;3204;42.698;23.298;2023-03-22T05:13:52;94600.34;;;10.41;96.19
6343;BME280;3204;42.698;23.298;2023-03-22T05:16:17;94602.75;;;10.42;96.14
6343;BME280;3204;42.698;23.298;2023-03-22T05:18:43;94605.66;;;10.46;96.23
6343;BME280;3204;42.698;23.298;2023-03-22T05:21:14;94610.28;;;10.45;96.86
6343;BME280;3204;42.698;23.298;2023-03-22T05:23:41;94612.19;;;10.45;96.45
6343;BME280;3204;42.698;23.298;2023-03-22T05:26:07;94618.56;;;10.49;96.81
6343;BME280;3204;42.698;23.298;2023-03-22T05:28:34;94618.25;;;10.50;96.02
6343;BME280;3204;42.698;23.298;2023-03-22T05:31:00;94621.78;;;10.51;96.54
6343;BME280;3204;42.698;23.298;2023-03-22T05:33:25;94609.31;;;10.41;96.30
6343;BME280;3204;42.698;23.298;2023-03-22T05:35:52;94628.47;;;10.53;95.93
6343;BME280;3204;42.698;23.298;2023-03-22T05:38:18;94620.81;;;10.55;95.47
6343;BME280;3204;42.698;23.298;2023-03-22T05:40:44;94621.28;;;10.57;95.70
6343;BME280;3204;42.698;23.298;2023-03-22T05:43:09;94622.25;;;10.53;95.55
6343;BME280;3204;42.698;23.298;2023-03-22T05:45:35;94621.47;;;10.61;95.58
6343;BME280;3204;42.698;23.298;2023-03-22T05:48:01;94632.31;;;10.61;94.96
6343;BME280;3204;42.698;23.298;2023-03-22T05:50:27;94625.28;;;10.60;94.93
6343;BME280;3204;42.698;23.298;2023-03-22T05:52:52;94627.81;;;10.56;95.14
6343;BME280;3204;42.698;23.298;2023-03-22T05:55:18;94626.72;;;10.57;95.54
6343;BME280;3204;42.698;23.298;2023-03-22T05:57:45;94635.03;;;10.78;96.23
6343;BME280;3204;42.698;23.298;2023-03-22T06:00:13;94641.75;;;10.72;94.96
6343;BME280;3204;42.698;23.298;2023-03-22T06:02:41;94648.44;;;10.74;95.11
6343;BME280;3204;42.698;23.298;2023-03-22T06:05:07;94654.69;;;10.75;95.10
6343;BME280;3204;42.698;23.298;2023-03-22T06:07:33;94648.59;;;10.69;95.35
6343;BME280;3204;42.698;23.298;2023-03-22T06:09:58;94651.94;;;10.66;95.25
6343;BME280;3204;42.698;23.298;2023-03-22T06:12:24;94649.06;;;10.63;94.74
6343;BME280;3204;42.698;23.298;2023-03-22T06:14:50;94647.63;;;10.65;94.93
6343;BME280;3204;42.698;23.298;2023-03-22T06:17:16;94654.19;;;10.64;93.67
6343;BME280;3204;42.698;23.298;2023-03-22T06:19:42;94652.75;;;10.67;94.49
6343;BME280;3204;42.698;23.298;2023-03-22T06:22:07;94649.88;;;10.72;94.52
6343;BME280;3204;42.698;23.298;2023-03-22T06:24:33;94655.00;;;10.73;93.84
6343;BME280;3204;42.698;23.298;2023-03-22T06:26:58;94657.88;;;10.77;93.94
6343;BME280;3204;42.698;23.298;2023-03-22T06:29:24;94652.13;;;10.78;93.92
6343;BME280;3204;42.698;23.298;2023-03-22T06:31:49;94658.38;;;10.87;93.25
6343;BME280;3204;42.698;23.298;2023-03-22T06:34:15;94655.97;;;10.86;94.16
6343;BME280;3204;42.698;23.298;2023-03-22T06:36:40;94656.94;;;10.90;94.23
6343;BME280;3204;42.698;23.298;2023-03-22T06:39:07;94662.34;;;10.90;94.16
6343;BME280;3204;42.698;23.298;2023-03-22T06:41:33;94666.03;;;10.94;94.61
6343;BME280;3204;42.698;23.298;2023-03-22T06:43:58;94665.72;;;11.04;93.94
6343;BME280;3204;42.698;23.298;2023-03-22T06:46:23;94663.31;;;11.11;93.42
6343;BME280;3204;42.698;23.298;2023-03-22T06:48:49;94674.34;;;11.14;93.01
6343;BME280;3204;42.698;23.298;2023-03-22T06:51:14;94671.16;;;11.21;91.18
6343;BME280;3204;42.698;23.298;2023-03-22T06:53:40;94672.78;;;11.22;90.59
6343;BME280;3204;42.698;23.298;2023-03-22T06:56:06;94667.81;;;11.15;91.54
6343;BME280;3204;42.698;23.298;2023-03-22T06:58:31;94670.97;;;11.26;91.46
6343;BME280;3204;42.698;23.298;2023-03-22T07:00:56;94679.47;;;11.24;91.54
6343;BME280;3204;42.698;23.298;2023-03-22T07:03:22;94682.66;;;11.35;91.03
6343;BME280;3204;42.698;23.298;2023-03-22T07:05:48;94683.78;;;11.34;91.50
6343;BME280;3204;42.698;23.298;2023-03-22T07:08:13;94684.09;;;11.41;91.22
6343;BME280;3204;42.698;23.298;2023-03-22T07:10:40;94685.38;;;11.43;91.03
6343;BME280;3204;42.698;23.298;2023-03-22T07:13:06;94682.66;;;11.52;90.91
6343;BME280;3204;42.698;23.298;2023-03-22T07:15:32;94687.78;;;11.53;90.34
6343;BME280;3204;42.698;23.298;2023-03-22T07:17:59;94681.06;;;11.59;90.09
6343;BME280;3204;42.698;23.298;2023-03-22T07:20:25;94691.09;;;11.59;90.79
6343;BME280;3204;42.698;23.298;2023-03-22T07:22:51;94697.84;;;11.70;90.34
6343;BME280;3204;42.698;23.298;2023-03-22T07:25:16;94689.69;;;11.70;90.18
6343;BME280;3204;42.698;23.298;2023-03-22T07:27:42;94699.44;;;11.71;90.36
6343;BME280;3204;42.698;23.298;2023-03-22T07:30:09;94698.16;;;11.77;90.22
6343;BME280;3204;42.698;23.298;2023-03-22T07:32:35;94702.94;;;11.80;89.85
6343;BME280;3204;42.698;23.298;2023-03-22T07:35:01;94708.06;;;11.73;89.37
6343;BME280;3204;42.698;23.298;2023-03-22T07:37:26;94705.66;;;11.63;89.28
6343;BME280;3204;42.698;23.298;2023-03-22T07:39:52;94692.06;;;11.54;89.35
6343;BME280;3204;42.698;23.298;2023-03-22T07:42:17;94707.41;;;11.59;89.57
6343;BME280;3204;42.698;23.298;2023-03-22T07:44:42;94718.25;;;11.59;89.59
6343;BME280;3204;42.698;23.298;2023-03-22T07:47:08;94719.09;;;11.51;89.92
6343;BME280;3204;42.698;23.298;2023-03-22T07:49:34;94721.81;;;11.59;89.58
6343;BME280;3204;42.698;23.298;2023-03-22T07:51:59;94714.47;;;11.60;89.59
6343;BME280;3204;42.698;23.298;2023-03-22T07:54:24;94716.97;;;11.56;89.34
6343;BME280;3204;42.698;23.298;2023-03-22T07:56:50;94720.69;;;11.60;88.98
6343;BME280;3204;42.698;23.298;2023-03-22T07:59:16;94723.53;;;11.55;88.80
6343;BME280;3204;42.698;23.298;2023-03-22T08:01:42;94722.41;;;11.56;87.98
6343;BME280;3204;42.698;23.298;2023-03-22T08:04:08;94727.53;;;11.58;87.76
6343;BME280;3204;42.698;23.298;2023-03-22T08:06:33;94728.53;;;11.62;88.06
6343;BME280;3204;42.698;23.298;2023-03-22T08:09:02;94723.06;;;11.53;88.45
6343;BME280;3204;42.698;23.298;2023-03-22T08:11:28;94717.97;;;11.60;88.78
6343;BME280;3204;42.698;23.298;2023-03-22T08:13:53;94724.53;;;11.59;88.83
6343;BME280;3204;42.698;23.298;2023-03-22T08:16:19;94728.34;;;11.58;88.89
6343;BME280;3204;42.698;23.298;2023-03-22T08:18:45;94727.53;;;11.58;87.96
6343;BME280;3204;42.698;23.298;2023-03-22T08:21:10;94728.53;;;11.62;87.82
6343;BME280;3204;42.698;23.298;2023-03-22T08:23:36;94731.72;;;11.64;87.66
6343;BME280;3204;42.698;23.298;2023-03-22T08:26:02;94736.50;;;11.67;88.08
6343;BME280;3204;42.698;23.298;2023-03-22T08:28:27;94732.84;;;11.63;88.05
6343;BME280;3204;42.698;23.298;2023-03-22T08:30:53;94730.13;;;11.63;88.28
6343;BME280;3204;42.698;23.298;2023-03-22T08:33:18;94740.03;;;11.67;88.06
6343;BME280;3204;42.698;23.298;2023-03-22T08:35:47;94734.13;;;11.65;87.83
6343;BME280;3204;42.698;23.298;2023-03-22T08:38:12;94740.34;;;11.66;87.93
6343;BME280;3204;42.698;23.298;2023-03-22T08:40:38;94732.66;;;11.68;88.02
6343;BME280;3204;42.698;23.298;2023-03-22T08:43:05;94743.84;;;11.66;88.29
6343;BME280;3204;42.698;23.298;2023-03-22T08:45:31;94737.28;;;11.59;88.67
6343;BME280;3204;42.698;23.298;2023-03-22T08:47:57;94745.13;;;11.69;88.79
6343;BME280;3204;42.698;23.298;2023-03-22T08:50:23;94745.31;;;11.72;89.35
6343;BME280;3204;42.698;23.298;2023-03-22T08:52:48;94747.72;;;11.74;89.37
6343;BME280;3204;42.698;23.298;2023-03-22T08:55:15;94756.66;;;11.74;89.38
6343;BME280;3204;42.698;23.298;2023-03-22T08:57:42;94741.31;;;11.78;89.80
6343;BME280;3204;42.698;23.298;2023-03-22T09:00:11;94752.97;;;11.79;89.83
6343;BME280;3204;42.698;23.298;2023-03-22T09:02:37;94743.53;;;11.85;89.90
6343;BME280;3204;42.698;23.298;2023-03-22T09:05:03;94751.22;;;11.74;90.00
6343;BME280;3204;42.698;23.298;2023-03-22T09:07:29;94747.38;;;11.75;90.50
6343;BME280;3204;42.698;23.298;2023-03-22T09:09:54;94749.31;;;11.75;90.41
6343;BME280;3204;42.698;23.298;2023-03-22T09:12:20;94754.75;;;11.75;90.02
6343;BME280;3204;42.698;23.298;2023-03-22T09:14:45;94754.88;;;11.78;89.84
6343;BME280;3204;42.698;23.298;2023-03-22T09:17:12;94758.06;;;11.80;90.42
6343;BME280;3204;42.698;23.298;2023-03-22T09:19:38;94760.00;;;11.80;91.08
6343;BME280;3204;42.698;23.298;2023-03-22T09:22:03;94760.63;;;11.77;91.31
6343;BME280;3204;42.698;23.298;2023-03-22T09:24:29;94758.06;;;11.80;91.36
6343;BME280;3204;42.698;23.298;2023-03-22T09:26:54;94759.84;;;11.76;91.19
6343;BME280;3204;42.698;23.298;2023-03-22T09:29:22;94756.97;;;11.81;91.06
6343;BME280;3204;42.698;23.298;2023-03-22T09:31:47;94760.47;;;11.82;90.58
6343;BME280;3204;42.698;23.298;2023-03-22T09:34:13;94759.38;;;11.74;90.22
6343;BME280;3204;42.698;23.298;2023-03-22T09:36:39;94755.53;;;11.75;89.83
6343;BME280;3204;42.698;23.298;2023-03-22T09:39:05;94754.44;;;11.76;89.84
6343;BME280;3204;42.698;23.298;2023-03-22T09:41:59;94759.84;;;11.76;90.16
6343;BME280;3204;42.698;23.298;2023-03-22T09:44:30;94753.94;;;11.74;90.29
6343;BME280;3204;42.698;23.298;2023-03-22T09:46:58;94754.56;;;11.80;90.44
6343;BME280;3204;42.698;23.298;2023-03-22T09:49:32;94755.84;;;11.82;90.56
6343;BME280;3204;42.698;23.298;2023-03-22T09:52:00;94753.59;;;11.84;90.22
6343;BME280;3204;42.698;23.298;2023-03-22T09:54:32;94764.16;;;11.86;90.04
6343;BME280;3204;42.698;23.298;2023-03-22T09:57:05;94756.47;;;11.79;90.42
6343;BME280;3204;42.698;23.298;2023-03-22T09:59:41;94756.81;;;11.86;90.12
6343;BME280;3204;42.698;23.298;2023-03-22T10:10:18;94753.63;;;11.93;89.92
6343;BME280;3204;42.698;23.298;2023-03-22T10:15:41;94761.91;;;11.96;89.06
6343;BME280;3204;42.698;23.298;2023-03-22T10:18:12;94772.47;;;11.89;88.50
6343;BME280;3204;42.698;23.298;2023-03-22T10:20:57;94771.69;;;11.89;88.30
6343;BME280;3204;42.698;23.298;2023-03-22T10:23:35;94766.06;;;11.85;88.47
6343;BME280;3204;42.698;23.298;2023-03-22T10:26:04;94769.91;;;11.84;87.40
6343;BME280;3204;42.698;23.298;2023-03-22T10:28:37;94766.56;;;11.79;87.85
6343;BME280;3204;42.698;23.298;2023-03-22T10:31:03;94773.41;;;11.93;87.50
6343;BME280;3204;42.698;23.298;2023-03-22T10:33:33;94772.78;;;11.96;87.05
6343;BME280;3204;42.698;23.298;2023-03-22T10:36:01;94764.28;;;12.06;87.61
6343;BME280;3204;42.698;23.298;2023-03-22T10:38:29;94762.22;;;12.03;87.58
6343;BME280;3204;42.698;23.298;2023-03-22T10:40:58;94766.38;;;11.92;88.11
6343;BME280;3204;42.698;23.298;2023-03-22T10:43:31;94761.28;;;11.82;88.48
6343;BME280;3204;42.698;23.298;2023-03-22T10:46:01;94766.84;;;11.94;88.23
6343;BME280;3204;42.698;23.298;2023-03-22T10:48:30;94756.16;;;11.98;88.35
6343;BME280;3204;42.698;23.298;2023-03-22T10:50:58;94761.25;;;11.99;87.94
6343;BME280;3204;42.698;23.298;2023-03-22T10:55:59;94763.47;;;12.06;87.59
6343;BME280;3204;42.698;23.298;2023-03-22T10:58:29;94761.59;;;11.98;88.41
6343;BME280;3204;42.698;23.298;2023-03-22T11:00:57;94769.75;;;11.98;88.70
6343;BME280;3204;42.698;23.298;2023-03-22T11:06:28;94762.03;;;12.08;87.78
6343;BME280;3204;42.698;23.298;2023-03-22T11:08:58;94755.81;;;12.08;88.05
6343;BME280;3204;42.698;23.298;2023-03-22T11:11:28;94753.88;;;12.17;87.82
6343;BME280;3204;42.698;23.298;2023-03-22T11:14:11;94758.38;;;12.13;87.73
6343;BME280;3204;42.698;23.298;2023-03-22T11:19:24;94757.06;;;12.19;87.60
6343;BME280;3204;42.698;23.298;2023-03-22T11:21:53;94758.84;;;12.15;87.83
6343;BME280;3204;42.698;23.298;2023-03-22T11:24:19;94749.25;;;12.09;88.43
6343;BME280;3204;42.698;23.298;2023-03-22T11:27:20;94756.91;;;12.07;88.94
6343;BME280;3204;42.698;23.298;2023-03-22T11:29:50;94751.00;;;12.13;88.96
6343;BME280;3204;42.698;23.298;2023-03-22T11:32:37;94750.22;;;12.13;89.36
6343;BME280;3204;42.698;23.298;2023-03-22T11:35:20;94750.34;;;12.16;89.47
6343;BME280;3204;42.698;23.298;2023-03-22T11:37:51;94747.00;;;12.11;89.20
6343;BME280;3204;42.698;23.298;2023-03-22T11:40:25;94741.41;;;12.16;89.31
6343;BME280;3204;42.698;23.298;2023-03-22T11:42:53;94743.19;;;12.12;89.19
6343;BME280;3204;42.698;23.298;2023-03-22T11:45:31;94743.34;;;12.15;89.66
6343;BME280;3204;42.698;23.298;2023-03-22T11:48:18;94747.19;;;12.14;89.36
6343;BME280;3204;42.698;23.298;2023-03-22T11:50:45;94743.97;;;12.12;89.01
6343;BME280;3204;42.698;23.298;2023-03-22T11:53:14;94745.72;;;12.17;89.05
6343;BME280;3204;42.698;23.298;2023-03-22T11:55:41;94739.94;;;12.18;88.54
6343;BME280;3204;42.698;23.298;2023-03-22T11:58:54;94747.94;;;12.23;88.53
6343;BME280;3204;42.698;23.298;2023-03-22T12:01:15;94746.66;;;12.21;88.53
6343;BME280;3204;42.698;23.298;2023-03-22T12:03:46;94750.03;;;12.18;88.09
6343;BME280;3204;42.698;23.298;2023-03-22T12:06:35;94753.72;;;12.22;87.75
6343;BME280;3204;42.698;23.298;2023-03-22T12:11:37;94756.91;;;12.24;87.48
6343;BME280;3204;42.698;23.298;2023-03-22T12:14:22;94745.06;;;12.20;87.88
6343;BME280;3204;42.698;23.298;2023-03-22T12:17:12;94744.28;;;12.19;88.34
6343;BME280;3204;42.698;23.298;2023-03-22T12:20:05;94743.31;;;12.24;88.05
6343;BME280;3204;42.698;23.298;2023-03-22T12:22:36;94746.34;;;12.31;88.13
6343;BME280;3204;42.698;23.298;2023-03-22T12:25:11;94734.47;;;12.35;87.55
6343;BME280;3204;42.698;23.298;2023-03-22T12:27:41;94733.34;;;12.36;87.35
6343;BME280;3204;42.698;23.298;2023-03-22T12:30:15;94739.25;;;12.47;86.93
6343;BME280;3204;42.698;23.298;2023-03-22T12:33:04;94743.69;;;12.60;86.86
6343;BME280;3204;42.698;23.298;2023-03-22T12:35:35;94735.00;;;12.66;85.20
6343;BME280;3204;42.698;23.298;2023-03-22T12:38:22;94730.84;;;12.69;84.92
6343;BME280;3204;42.698;23.298;2023-03-22T12:40:53;94727.94;;;12.74;84.82
6343;BME280;3204;42.698;23.298;2023-03-22T12:43:51;94735.59;;;12.80;84.78
6343;BME280;3204;42.698;23.298;2023-03-22T12:46:47;94735.03;;;12.95;84.29
6343;BME280;3204;42.698;23.298;2023-03-22T12:49:28;94735.81;;;12.96;83.41
6343;BME280;3204;42.698;23.298;2023-03-22T12:52:09;94732.63;;;12.94;82.17
6343;BME280;3204;42.698;23.298;2023-03-22T12:54:36;94729.41;;;12.92;80.43
6343;BME280;3204;42.698;23.298;2023-03-22T12:57:02;94734.28;;;12.86;82.13
6343;BME280;3204;42.698;23.298;2023-03-22T12:59:30;94727.63;;;12.96;79.98
6343;BME280;3204;42.698;23.298;2023-03-22T13:02:03;94727.56;;;12.84;80.69
6343;BME280;3204;42.698;23.298;2023-03-22T13:09:46;94730.66;;;12.65;82.53
6343;BME280;3204;42.698;23.298;2023-03-22T13:17:14;94719.47;;;12.67;82.17
6343;BME280;3204;42.698;23.298;2023-03-22T13:19:50;94728.84;;;12.78;82.16
6343;BME280;3204;42.698;23.298;2023-03-22T13:22:25;94724.22;;;12.78;82.31
6343;BME280;3204;42.698;23.298;2023-03-22T13:30:34;94714.75;;;13.13;80.71
6343;BME280;3204;42.698;23.298;2023-03-22T13:33:17;94716.31;;;13.23;79.41
6343;BME280;3204;42.698;23.298;2023-03-22T13:35:53;94717.88;;;13.24;79.16
6343;BME280;3204;42.698;23.298;2023-03-22T13:38:39;94721.34;;;13.33;79.61
6343;BME280;3204;42.698;23.298;2023-03-22T13:41:08;94716.03;;;13.57;77.98
6343;BME280;3204;42.698;23.298;2023-03-22T13:43:52;94718.50;;;13.70;77.93
6343;BME280;3204;42.698;23.298;2023-03-22T13:59:31;94728.00;;;13.44;77.81
6343;BME280;3204;42.698;23.298;2023-03-22T14:02:27;94717.66;;;13.37;76.70
6343;BME280;3204;42.698;23.298;2023-03-22T14:05:11;94720.22;;;13.34;77.83
6343;BME280;3204;42.698;23.298;2023-03-22T14:07:49;94722.75;;;13.39;78.08
6343;BME280;3204;42.698;23.298;2023-03-22T14:13:38;94717.38;;;13.30;77.12
6343;BME280;3204;42.698;23.298;2023-03-22T14:16:07;94720.84;;;13.39;77.62
6343;BME280;3204;42.698;23.298;2023-03-22T14:18:34;94729.53;;;13.33;77.54
6343;BME280;3204;42.698;23.298;2023-03-22T14:21:06;94723.38;;;13.44;77.39
6343;BME280;3204;42.698;23.298;2023-03-22T14:23:35;94723.75;;;13.34;76.95
6343;BME280;3204;42.698;23.298;2023-03-22T14:28:37;94723.72;;;13.14;78.95
6343;BME280;3204;42.698;23.298;2023-03-22T14:31:06;94717.25;;;13.27;78.63
6343;BME280;3204;42.698;23.298;2023-03-22T14:33:34;94704.03;;;13.17;78.60
6343;BME280;3204;42.698;23.298;2023-03-22T14:36:04;94723.44;;;13.36;77.33
6343;BME280;3204;42.698;23.298;2023-03-22T14:38:33;94721.56;;;13.28;77.21
6343;BME280;3204;42.698;23.298;2023-03-22T14:41:23;94726.47;;;13.34;78.24
6343;BME280;3204;42.698;23.298;2023-03-22T14:43:57;94725.19;;;13.11;78.10
6343;BME280;3204;42.698;23.298;2023-03-22T14:46:29;94730.97;;;13.10;78.07
6343;BME280;3204;42.698;23.298;2023-03-22T14:48:58;94727.66;;;13.04;77.46